EWG2AZ ESGG-EDDS
Flight info
| Callsign | EWG2AZ |
|---|---|
| Flight time | N/A |
| Altitude | 34000 |
| Route | VADI3J VADIN M852 GODOG T148 LOMPU/N0445F360 DCT BERXO/N0443F370 DCT SILWE DCT OSBIT P605 TOSTU T726 LBU |
| Aircraft | A320/M-SDE3FGHIRWY/LB1 |
Departure
| Time | N/A |
|---|---|
| Airport | Göteborg Landvetter Airport (ESGG) |
Arrival
| Time | 2026-05-03 20:51 |
|---|---|
| Airport | Stuttgart Airport (EDDS) |
| Time | Latitude | Longitude | Altitude | Speed | Heading |
|---|---|---|---|---|---|
| 2026-05-03 20:15 | 51.67478 | 10.01036 | 35955 ft | 413 kts | 192° |
| 2026-05-03 20:15 | 51.61819 | 9.99400 | 35947 ft | 413 kts | 192° |
| 2026-05-03 20:16 | 51.56165 | 9.97776 | 35959 ft | 413 kts | 192° |
| 2026-05-03 20:16 | 51.50511 | 9.96154 | 35956 ft | 413 kts | 192° |
| 2026-05-03 20:17 | 51.44847 | 9.94536 | 35961 ft | 413 kts | 192° |
| 2026-05-03 20:17 | 51.39227 | 9.92940 | 35959 ft | 413 kts | 192° |
| 2026-05-03 20:18 | 51.33576 | 9.91334 | 35962 ft | 412 kts | 192° |
| 2026-05-03 20:18 | 51.27927 | 9.89728 | 35964 ft | 412 kts | 192° |
| 2026-05-03 20:19 | 51.22273 | 9.88209 | 35960 ft | 413 kts | 187° |
| 2026-05-03 20:19 | 51.16516 | 9.87688 | 35962 ft | 414 kts | 186° |
| 2026-05-03 20:20 | 51.10759 | 9.87177 | 35973 ft | 414 kts | 186° |
| 2026-05-03 20:20 | 51.05011 | 9.86674 | 35969 ft | 414 kts | 186° |
| 2026-05-03 20:21 | 50.99256 | 9.86173 | 35971 ft | 414 kts | 186° |
| 2026-05-03 20:21 | 50.93539 | 9.85671 | 35972 ft | 414 kts | 186° |
| 2026-05-03 20:22 | 50.87787 | 9.85163 | 35978 ft | 414 kts | 186° |
| 2026-05-03 20:22 | 50.82030 | 9.84667 | 35978 ft | 414 kts | 186° |
| 2026-05-03 20:23 | 50.76280 | 9.84194 | 35976 ft | 414 kts | 186° |
| 2026-05-03 20:23 | 50.70518 | 9.83709 | 35978 ft | 414 kts | 186° |
| 2026-05-03 20:24 | 50.64761 | 9.83215 | 35957 ft | 414 kts | 186° |
| 2026-05-03 20:24 | 50.58986 | 9.82713 | 35981 ft | 416 kts | 186° |
| 2026-05-03 20:25 | 50.53202 | 9.82221 | 35983 ft | 416 kts | 186° |
| 2026-05-03 20:25 | 50.47417 | 9.81725 | 35983 ft | 416 kts | 186° |
| 2026-05-03 20:26 | 50.41623 | 9.81239 | 35984 ft | 417 kts | 186° |
| 2026-05-03 20:26 | 50.35826 | 9.80744 | 35989 ft | 417 kts | 186° |
| 2026-05-03 20:27 | 50.30066 | 9.80257 | 35985 ft | 417 kts | 186° |
| 2026-05-03 20:27 | 50.24268 | 9.79764 | 35989 ft | 417 kts | 186° |
| 2026-05-03 20:28 | 50.18478 | 9.79278 | 35728 ft | 416 kts | 185° |
| 2026-05-03 20:28 | 50.15590 | 9.79031 | 35476 ft | 416 kts | 185° |
| 2026-05-03 20:28 | 50.12702 | 9.78784 | 35226 ft | 416 kts | 185° |
| 2026-05-03 20:28 | 50.09818 | 9.78539 | 34982 ft | 415 kts | 185° |
| 2026-05-03 20:29 | 50.06928 | 9.78331 | 34738 ft | 416 kts | 182° |
| 2026-05-03 20:29 | 50.04036 | 9.78487 | 34496 ft | 416 kts | 180° |
| 2026-05-03 20:29 | 50.01132 | 9.78683 | 33747 ft | 420 kts | 180° |
| 2026-05-03 20:29 | 49.98198 | 9.78878 | 32910 ft | 421 kts | 180° |
| 2026-05-03 20:30 | 49.95296 | 9.79069 | 32432 ft | 415 kts | 180° |
| 2026-05-03 20:30 | 49.92423 | 9.79256 | 31851 ft | 411 kts | 180° |
| 2026-05-03 20:30 | 49.89579 | 9.79440 | 31292 ft | 407 kts | 180° |
| 2026-05-03 20:30 | 49.86758 | 9.79623 | 30737 ft | 404 kts | 180° |
| 2026-05-03 20:31 | 49.83959 | 9.79804 | 30189 ft | 401 kts | 180° |
| 2026-05-03 20:31 | 49.81182 | 9.79979 | 29589 ft | 398 kts | 181° |
| 2026-05-03 20:31 | 49.78463 | 9.80150 | 29063 ft | 394 kts | 180° |
| 2026-05-03 20:31 | 49.75743 | 9.80322 | 28528 ft | 389 kts | 180° |
| 2026-05-03 20:32 | 49.73053 | 9.80488 | 28018 ft | 385 kts | 180° |
| 2026-05-03 20:32 | 49.70387 | 9.80655 | 27510 ft | 381 kts | 181° |
| 2026-05-03 20:32 | 49.67755 | 9.80799 | 27016 ft | 377 kts | 181° |
| 2026-05-03 20:32 | 49.65147 | 9.80922 | 26529 ft | 373 kts | 181° |
| 2026-05-03 20:33 | 49.62565 | 9.81031 | 26059 ft | 369 kts | 181° |
| 2026-05-03 20:33 | 49.60010 | 9.81308 | 25600 ft | 368 kts | 174° |
| 2026-05-03 20:33 | 49.57496 | 9.81984 | 25130 ft | 365 kts | 173° |
| 2026-05-03 20:33 | 49.55005 | 9.82673 | 24667 ft | 362 kts | 173° |
| 2026-05-03 20:34 | 49.52535 | 9.83362 | 24221 ft | 359 kts | 173° |
| 2026-05-03 20:34 | 49.50083 | 9.84046 | 23775 ft | 357 kts | 173° |
| 2026-05-03 20:34 | 49.47642 | 9.84724 | 23270 ft | 355 kts | 173° |
| 2026-05-03 20:34 | 49.45223 | 9.85397 | 22807 ft | 352 kts | 173° |
| 2026-05-03 20:35 | 49.42826 | 9.86060 | 22364 ft | 349 kts | 173° |
| 2026-05-03 20:35 | 49.40416 | 9.86724 | 21848 ft | 357 kts | 173° |
| 2026-05-03 20:35 | 49.37965 | 9.87397 | 21328 ft | 359 kts | 173° |
| 2026-05-03 20:35 | 49.35513 | 9.88070 | 20845 ft | 357 kts | 173° |
| 2026-05-03 20:36 | 49.33069 | 9.88742 | 20392 ft | 356 kts | 173° |
| 2026-05-03 20:36 | 49.30631 | 9.89411 | 19946 ft | 354 kts | 173° |
| 2026-05-03 20:36 | 49.28211 | 9.90077 | 19524 ft | 353 kts | 173° |
| 2026-05-03 20:36 | 49.25796 | 9.90740 | 19070 ft | 352 kts | 173° |
| 2026-05-03 20:37 | 49.23396 | 9.91396 | 18655 ft | 350 kts | 173° |
| 2026-05-03 20:37 | 49.20988 | 9.91816 | 18215 ft | 345 kts | 185° |
| 2026-05-03 20:37 | 49.18667 | 9.91118 | 17704 ft | 339 kts | 203° |
| 2026-05-03 20:37 | 49.16663 | 9.89305 | 17203 ft | 334 kts | 222° |
| 2026-05-03 20:38 | 49.15185 | 9.86599 | 16684 ft | 334 kts | 240° |
| 2026-05-03 20:38 | 49.14284 | 9.83340 | 16199 ft | 333 kts | 249° |
| 2026-05-03 20:38 | 49.13491 | 9.80021 | 15723 ft | 332 kts | 248° |
| 2026-05-03 20:38 | 49.12696 | 9.76719 | 15253 ft | 331 kts | 248° |
| 2026-05-03 20:39 | 49.11903 | 9.73432 | 14802 ft | 330 kts | 248° |
| 2026-05-03 20:39 | 49.11120 | 9.70194 | 14346 ft | 328 kts | 248° |
| 2026-05-03 20:39 | 49.10329 | 9.66930 | 13896 ft | 327 kts | 248° |
| 2026-05-03 20:39 | 49.09541 | 9.63683 | 13399 ft | 326 kts | 247° |
| 2026-05-03 20:40 | 49.08753 | 9.60449 | 12901 ft | 324 kts | 247° |
| 2026-05-03 20:40 | 49.07967 | 9.57231 | 12395 ft | 323 kts | 247° |
| 2026-05-03 20:40 | 49.07186 | 9.54037 | 11918 ft | 321 kts | 247° |
| 2026-05-03 20:40 | 49.06410 | 9.50857 | 11462 ft | 318 kts | 247° |
| 2026-05-03 20:41 | 49.05517 | 9.47805 | 11013 ft | 313 kts | 236° |
| 2026-05-03 20:41 | 49.04172 | 9.45233 | 10574 ft | 308 kts | 222° |
| 2026-05-03 20:41 | 49.02470 | 9.43313 | 10129 ft | 300 kts | 208° |
| 2026-05-03 20:41 | 49.00681 | 9.41837 | 9680 ft | 286 kts | 208° |
| 2026-05-03 20:42 | 48.98971 | 9.40419 | 9202 ft | 275 kts | 208° |
| 2026-05-03 20:42 | 48.97321 | 9.39047 | 8737 ft | 265 kts | 208° |
| 2026-05-03 20:42 | 48.95733 | 9.37725 | 8273 ft | 256 kts | 208° |
| 2026-05-03 20:42 | 48.94190 | 9.36445 | 7828 ft | 248 kts | 208° |
| 2026-05-03 20:43 | 48.92585 | 9.35602 | 7382 ft | 243 kts | 189° |
| 2026-05-03 20:43 | 48.90915 | 9.35635 | 6940 ft | 240 kts | 170° |
| 2026-05-03 20:43 | 48.89354 | 9.36506 | 6505 ft | 240 kts | 151° |
| 2026-05-03 20:43 | 48.88023 | 9.38023 | 6043 ft | 239 kts | 143° |
| 2026-05-03 20:44 | 48.86740 | 9.39600 | 5675 ft | 235 kts | 143° |
| 2026-05-03 20:44 | 48.85475 | 9.41143 | 5474 ft | 231 kts | 143° |
| 2026-05-03 20:44 | 48.84232 | 9.42658 | 5271 ft | 227 kts | 144° |
| 2026-05-03 20:44 | 48.83010 | 9.44147 | 5070 ft | 223 kts | 144° |
| 2026-05-03 20:45 | 48.81805 | 9.45610 | 4872 ft | 221 kts | 144° |
| 2026-05-03 20:45 | 48.80614 | 9.47056 | 4675 ft | 218 kts | 144° |
| 2026-05-03 20:45 | 48.79450 | 9.48469 | 4481 ft | 215 kts | 144° |
| 2026-05-03 20:45 | 48.78308 | 9.49859 | 4303 ft | 206 kts | 144° |
| 2026-05-03 20:46 | 48.77087 | 9.50833 | 4092 ft | 195 kts | 171° |
| 2026-05-03 20:46 | 48.75791 | 9.50818 | 4001 ft | 181 kts | 198° |
| 2026-05-03 20:46 | 48.74706 | 9.49979 | 3998 ft | 173 kts | 223° |
| 2026-05-03 20:46 | 48.73981 | 9.48568 | 3997 ft | 170 kts | 246° |
| 2026-05-03 20:47 | 48.73622 | 9.46867 | 4004 ft | 170 kts | 254° |
| 2026-05-03 20:47 | 48.73302 | 9.45146 | 3895 ft | 170 kts | 254° |
| 2026-05-03 20:47 | 48.72980 | 9.43424 | 3699 ft | 168 kts | 254° |
| 2026-05-03 20:47 | 48.72671 | 9.41769 | 3492 ft | 158 kts | 255° |
| 2026-05-03 20:48 | 48.72380 | 9.40218 | 3300 ft | 148 kts | 254° |
| 2026-05-03 20:48 | 48.72103 | 9.38741 | 3108 ft | 144 kts | 255° |
| 2026-05-03 20:48 | 48.71838 | 9.37327 | 2935 ft | 137 kts | 255° |
| 2026-05-03 20:48 | 48.71581 | 9.35958 | 2753 ft | 135 kts | 254° |
| 2026-05-03 20:49 | 48.71321 | 9.34579 | 2561 ft | 137 kts | 255° |
| 2026-05-03 20:49 | 48.71056 | 9.33180 | 2395 ft | 139 kts | 255° |
| 2026-05-03 20:49 | 48.70795 | 9.31777 | 2226 ft | 141 kts | 255° |
| 2026-05-03 20:49 | 48.70517 | 9.30326 | 2036 ft | 145 kts | 254° |
| 2026-05-03 20:50 | 48.70234 | 9.28854 | 1839 ft | 145 kts | 255° |
| 2026-05-03 20:50 | 48.69955 | 9.27392 | 1629 ft | 145 kts | 256° |
| 2026-05-03 20:50 | 48.69688 | 9.25925 | 1422 ft | 144 kts | 255° |
| 2026-05-03 20:50 | 48.69416 | 9.24481 | 1262 ft | 142 kts | 256° |
| 2026-05-03 20:51 | 48.69166 | 9.23129 | 1216 ft | 117 kts | 254° |
| 2026-05-03 20:51 | 48.68986 | 9.22184 | 1239 ft | 77 kts | 254° |
| 2026-05-03 20:51 | 48.68856 | 9.21498 | 1261 ft | 60 kts | 253° |
| 2026-05-03 20:51 | 48.68752 | 9.20950 | 1267 ft | 49 kts | 254° |
| 2026-05-03 20:52 | 48.68679 | 9.20522 | 1273 ft | 32 kts | 263° |
| 2026-05-03 20:52 | 48.68697 | 9.20225 | 1281 ft | 23 kts | 283° |
| 2026-05-03 20:52 | 48.68713 | 9.20128 | 1286 ft | 0 kts | 284° |
| 2026-05-03 20:53 | 48.68713 | 9.20127 | 1286 ft | 1 kts | 284° |
| 2026-05-03 20:53 | 48.68721 | 9.20087 | 1288 ft | 4 kts | 292° |
| 2026-05-03 20:53 | 48.68733 | 9.20056 | 1289 ft | 8 kts | 301° |
| 2026-05-03 20:53 | 48.68775 | 9.19980 | 1293 ft | 8 kts | 313° |
| 2026-05-03 20:54 | 48.68812 | 9.19923 | 1297 ft | 13 kts | 316° |
| 2026-05-03 20:54 | 48.68888 | 9.19808 | 1304 ft | 5 kts | 256° |
| 2026-05-03 20:54 | 48.68857 | 9.19646 | 1309 ft | 14 kts | 254° |
| 2026-05-03 20:55 | 48.68841 | 9.19560 | 1310 ft | 11 kts | 253° |
| 2026-05-03 20:55 | 48.68826 | 9.19473 | 1312 ft | 5 kts | 272° |
| 2026-05-03 20:55 | 48.68835 | 9.19457 | 1313 ft | 0 kts | 332° |
| 2026-05-03 20:55 | 48.68864 | 9.19442 | 1314 ft | 6 kts | 343° |
| 2026-05-03 20:56 | 48.68890 | 9.19431 | 1315 ft | 2 kts | 344° |
| 2026-05-03 20:56 | 48.68897 | 9.19428 | 1315 ft | 1 kts | 344° |